createdAt,value
2022-11-10T00:00:39.150Z,1.58
2022-11-10T00:03:10.190Z,1.85
2022-11-10T00:05:39.137Z,1.85
2022-11-10T00:08:09.556Z,1.55
2022-11-10T00:10:57.124Z,1.27
2022-11-10T00:13:26.752Z,1.75
2022-11-10T00:16:09.310Z,1.20
2022-11-10T00:18:38.881Z,1.50
2022-11-10T00:21:08.738Z,2.92
2022-11-10T00:23:37.187Z,2.05
2022-11-10T00:26:11.813Z,1.70
2022-11-10T00:28:40.089Z,2.28
2022-11-10T00:31:08.888Z,2.03
2022-11-10T00:33:39.485Z,1.77
2022-11-10T00:36:08.112Z,2.70
2022-11-10T00:38:36.371Z,2.30
2022-11-10T00:41:04.906Z,1.55
2022-11-10T00:43:33.665Z,2.10
2022-11-10T00:46:02.259Z,2.20
2022-11-10T00:48:30.620Z,2.00
2022-11-10T00:51:00.198Z,1.70
2022-11-10T00:53:28.443Z,2.00
2022-11-10T00:55:56.693Z,1.70
2022-11-10T00:58:24.968Z,1.85
2022-11-10T01:00:53.165Z,1.63
2022-11-10T01:03:22.420Z,1.95
2022-11-10T01:05:50.791Z,2.40
2022-11-10T01:08:20.433Z,2.30
2022-11-10T01:10:48.549Z,3.22
2022-11-10T01:13:16.711Z,2.10
2022-11-10T01:15:44.829Z,2.33
2022-11-10T01:18:13.000Z,2.08
2022-11-10T01:20:41.200Z,1.77
2022-11-10T01:23:09.322Z,1.70
2022-11-10T01:25:38.907Z,2.55
2022-11-10T01:28:07.133Z,2.08
2022-11-10T01:30:35.434Z,1.80
2022-11-10T01:33:03.741Z,2.47
2022-11-10T01:35:31.952Z,2.25
2022-11-10T01:38:00.146Z,3.17
2022-11-10T01:40:28.359Z,2.30
2022-11-10T01:42:59.637Z,1.95
2022-11-10T01:45:52.867Z,1.95
2022-11-10T01:48:30.139Z,2.42
2022-11-10T01:51:02.953Z,2.00
2022-11-10T01:53:33.875Z,2.10
2022-11-10T01:56:04.073Z,1.90
2022-11-10T01:58:40.311Z,2.22
2022-11-10T02:01:09.388Z,2.08
2022-11-10T02:03:42.974Z,2.50
2022-11-10T02:06:12.394Z,2.42
2022-11-10T02:08:42.320Z,2.10
2022-11-10T02:11:10.487Z,2.15
2022-11-10T02:13:40.475Z,1.73
2022-11-10T02:16:08.981Z,2.30
2022-11-10T02:18:38.104Z,1.75
2022-11-10T02:21:08.180Z,2.58
2022-11-10T02:23:50.745Z,1.58
2022-11-10T02:26:23.404Z,2.65
2022-11-10T02:28:51.856Z,1.73
2022-11-10T02:31:20.052Z,2.25
2022-11-10T02:33:48.424Z,1.90
2022-11-10T02:36:18.254Z,2.00
2022-11-10T02:38:46.609Z,2.28
2022-11-10T02:41:14.747Z,2.45
2022-11-10T02:43:43.199Z,3.33
2022-11-10T02:46:11.302Z,2.25
2022-11-10T02:48:39.517Z,2.65
2022-11-10T02:51:08.184Z,1.90
2022-11-10T02:53:37.936Z,2.70
2022-11-10T02:56:06.861Z,2.63
2022-11-10T02:58:35.176Z,1.33
2022-11-10T03:01:07.059Z,2.53
2022-11-10T03:03:36.224Z,2.17
2022-11-10T03:06:04.365Z,1.67
2022-11-10T03:08:32.498Z,2.00
2022-11-10T03:11:02.059Z,1.63
2022-11-10T03:13:51.324Z,1.65
2022-11-10T03:16:20.272Z,1.90
2022-11-10T03:18:48.434Z,2.00
2022-11-10T03:21:16.651Z,1.90
2022-11-10T03:23:44.815Z,2.25
2022-11-10T03:26:14.460Z,1.90
2022-11-10T03:28:42.639Z,2.63
2022-11-10T03:31:10.731Z,2.25
2022-11-10T03:33:38.785Z,2.08
2022-11-10T03:36:07.247Z,2.00
2022-11-10T03:38:35.459Z,1.65
2022-11-10T03:41:18.884Z,1.35
2022-11-10T03:43:50.363Z,3.15
2022-11-10T03:46:19.135Z,2.08
2022-11-10T03:48:53.253Z,1.65
2022-11-10T03:51:22.852Z,1.77
2022-11-10T03:53:51.434Z,1.20
2022-11-10T03:56:19.631Z,2.50
2022-11-10T03:58:49.306Z,0.90
2022-11-10T04:01:17.489Z,1.13
2022-11-10T04:03:51.108Z,2.45
2022-11-10T04:06:37.212Z,1.20
2022-11-10T04:09:06.892Z,1.80
2022-11-10T04:11:52.650Z,0.90
2022-11-10T04:14:39.629Z,1.55
2022-11-10T04:17:08.528Z,0.85
2022-11-10T04:19:36.758Z,0.68
2022-11-10T04:22:04.889Z,0.82
2022-11-10T04:24:33.078Z,0.45
2022-11-10T04:27:01.150Z,0.90
2022-11-10T04:29:30.678Z,1.10
2022-11-10T04:31:58.871Z,1.10
2022-11-10T04:34:27.089Z,0.93
2022-11-10T04:36:55.308Z,1.02
2022-11-10T04:39:23.524Z,0.95
2022-11-10T04:41:51.660Z,0.98
2022-11-10T04:44:19.759Z,1.02
2022-11-10T04:46:49.751Z,0.77
2022-11-10T04:49:18.913Z,1.67
2022-11-10T04:51:47.081Z,0.82
2022-11-10T04:54:15.241Z,0.85
2022-11-10T04:56:43.378Z,0.82
2022-11-10T04:59:11.475Z,0.68
2022-11-10T05:01:39.520Z,0.60
2022-11-10T05:04:09.062Z,0.40
2022-11-10T05:06:37.240Z,0.80
2022-11-10T05:09:05.518Z,0.43
2022-11-10T05:11:33.753Z,0.40
2022-11-10T05:14:01.961Z,0.57
2022-11-10T05:16:30.114Z,0.40
2022-11-10T05:18:58.432Z,0.55
2022-11-10T05:21:27.939Z,0.30
2022-11-10T05:23:56.101Z,0.35
2022-11-10T05:26:24.437Z,0.40
2022-11-10T05:28:52.665Z,0.70
2022-11-10T05:31:20.858Z,0.15
2022-11-10T05:33:49.018Z,0.38
2022-11-10T05:36:17.241Z,0.40
2022-11-10T05:38:46.804Z,0.50
2022-11-10T05:41:14.932Z,0.50
2022-11-10T05:43:43.214Z,0.60
2022-11-10T05:46:11.960Z,0.60
2022-11-10T05:48:40.106Z,0.40
2022-11-10T05:51:08.327Z,0.60
2022-11-10T05:53:36.551Z,0.85
2022-11-10T05:56:06.824Z,0.82
2022-11-10T05:58:35.058Z,0.60
2022-11-10T06:01:03.381Z,0.47
2022-11-10T06:03:31.586Z,1.02
2022-11-10T06:05:59.871Z,0.60
2022-11-10T06:08:27.970Z,0.50
2022-11-10T06:10:56.116Z,0.63
2022-11-10T06:13:25.962Z,0.55
2022-11-10T06:15:54.191Z,0.50
2022-11-10T06:18:22.510Z,0.52
2022-11-10T06:20:50.687Z,0.70
2022-11-10T06:23:19.069Z,0.73
2022-11-10T06:25:47.536Z,0.60
2022-11-10T06:28:15.951Z,0.63
2022-11-10T06:30:45.520Z,0.47
2022-11-10T06:33:13.605Z,0.88
2022-11-10T06:35:41.765Z,0.40
2022-11-10T06:38:12.882Z,0.50
2022-11-10T06:40:41.327Z,0.90
2022-11-10T06:43:09.406Z,0.40
2022-11-10T06:45:37.547Z,0.63
2022-11-10T06:48:09.584Z,0.57
2022-11-10T06:50:37.679Z,0.75
2022-11-10T06:53:05.846Z,0.70
2022-11-10T06:55:33.986Z,0.60
2022-11-10T06:58:02.447Z,0.60
2022-11-10T07:00:31.243Z,1.10
2022-11-10T07:03:03.797Z,2.58
2022-11-10T07:05:35.055Z,0.55
2022-11-10T07:08:04.299Z,0.80
2022-11-10T07:10:32.773Z,0.57
2022-11-10T07:13:01.601Z,0.80
2022-11-10T07:15:30.464Z,0.90
2022-11-10T07:17:58.743Z,0.50
2022-11-10T07:20:28.632Z,0.45
2022-11-10T07:23:02.056Z,0.68
2022-11-10T07:25:32.690Z,0.40
2022-11-10T07:28:02.853Z,0.50
2022-11-10T07:30:33.232Z,0.50
2022-11-10T07:33:06.173Z,0.50
2022-11-10T07:35:35.052Z,0.57
2022-11-10T07:38:06.461Z,0.50
2022-11-10T07:40:35.008Z,0.90
2022-11-10T07:43:03.589Z,0.57
2022-11-10T07:45:32.749Z,0.63
2022-11-10T07:48:01.443Z,0.63
2022-11-10T07:50:30.357Z,0.70
2022-11-10T07:53:06.471Z,0.70
2022-11-10T07:55:35.078Z,0.68
2022-11-10T07:58:03.332Z,0.80
2022-11-10T08:00:31.830Z,0.98
2022-11-10T08:03:04.860Z,0.77
2022-11-10T08:05:33.243Z,0.80
2022-11-10T08:08:01.607Z,0.60
2022-11-10T08:10:32.654Z,0.75
2022-11-10T08:13:02.883Z,0.88
2022-11-10T08:15:32.619Z,0.85
2022-11-10T08:18:01.354Z,0.82
2022-11-10T08:20:29.570Z,0.90
2022-11-10T08:23:00.022Z,0.90
2022-11-10T08:25:34.250Z,1.05
2022-11-10T08:28:05.673Z,1.10
2022-11-10T08:30:35.054Z,1.40
2022-11-10T08:33:05.509Z,1.38
2022-11-10T08:35:36.772Z,1.02
2022-11-10T08:38:10.029Z,1.20
2022-11-10T08:40:38.889Z,1.02
2022-11-10T08:43:09.029Z,0.70
2022-11-10T08:45:37.233Z,0.70
2022-11-10T08:48:07.377Z,1.20
2022-11-10T08:50:35.725Z,0.82
2022-11-10T08:53:05.384Z,0.60
2022-11-10T08:55:33.760Z,1.00
2022-11-10T08:58:03.585Z,0.80
2022-11-10T09:00:34.171Z,1.17
2022-11-10T09:03:07.791Z,0.82
2022-11-10T09:05:37.138Z,0.60
2022-11-10T09:08:05.878Z,1.00
2022-11-10T09:10:36.299Z,0.52
2022-11-10T09:13:05.827Z,0.50
2022-11-10T09:15:36.699Z,0.90
2022-11-10T09:18:06.949Z,0.80
2022-11-10T09:20:36.901Z,1.10
2022-11-10T09:23:09.747Z,0.80
2022-11-10T09:25:38.495Z,2.10
2022-11-10T09:28:06.786Z,0.93
2022-11-10T09:30:36.387Z,0.70
2022-11-10T09:33:04.759Z,1.00
2022-11-10T09:35:32.808Z,0.73
2022-11-10T09:38:01.065Z,0.45
2022-11-10T09:40:40.036Z,0.82
2022-11-10T09:43:15.772Z,0.55
2022-11-10T09:45:51.848Z,0.70
2022-11-10T09:48:26.892Z,3.53
2022-11-10T09:50:58.970Z,0.90
2022-11-10T09:53:33.513Z,0.55
2022-11-10T09:56:04.756Z,0.50
2022-11-10T09:58:38.767Z,0.40
2022-11-10T10:01:26.735Z,1.35
2022-11-10T10:04:12.308Z,0.90
2022-11-10T10:07:10.229Z,0.63
2022-11-10T10:09:46.716Z,1.08
2022-11-10T10:12:25.451Z,0.60
2022-11-10T10:15:13.643Z,0.60
2022-11-10T10:17:54.601Z,1.27
2022-11-10T10:20:30.481Z,0.60
2022-11-10T10:23:09.356Z,0.63
2022-11-10T10:25:41.041Z,0.85
2022-11-10T10:28:17.791Z,1.50
2022-11-10T10:30:46.648Z,1.73
2022-11-10T10:33:19.452Z,0.90
2022-11-10T10:35:50.062Z,0.93
2022-11-10T10:38:24.575Z,1.30
2022-11-10T10:40:54.290Z,1.38
2022-11-10T10:43:22.595Z,1.30
2022-11-10T10:46:07.346Z,1.10
2022-11-10T10:48:36.999Z,2.25
2022-11-10T10:51:05.763Z,2.20
2022-11-10T10:53:34.113Z,2.33
2022-11-10T10:56:06.888Z,1.98
2022-11-10T10:58:37.771Z,1.40
2022-11-10T11:01:08.961Z,1.60
2022-11-10T11:03:53.377Z,1.50
2022-11-10T11:06:25.778Z,1.88
2022-11-10T11:09:00.472Z,1.83
2022-11-10T11:11:31.631Z,1.60
2022-11-10T11:14:16.981Z,1.90
2022-11-10T11:16:51.112Z,2.47
2022-11-10T11:19:22.741Z,1.83
2022-11-10T11:22:42.070Z,1.85
2022-11-10T11:25:21.344Z,1.90
2022-11-10T11:28:00.913Z,2.03
2022-11-10T11:30:40.388Z,2.08
2022-11-10T11:33:19.752Z,1.95
2022-11-10T11:35:54.176Z,2.53
2022-11-10T11:38:31.556Z,2.72
2022-11-10T11:41:14.812Z,2.03
2022-11-10T11:44:08.125Z,2.08
2022-11-10T11:46:43.626Z,2.35
2022-11-10T11:49:40.081Z,2.78
2022-11-10T11:52:21.170Z,1.70
2022-11-10T11:55:11.680Z,2.67
2022-11-10T11:57:52.144Z,2.40
2022-11-10T12:00:21.906Z,2.05
2022-11-10T12:03:27.010Z,2.33
2022-11-10T12:06:08.571Z,1.88
2022-11-10T12:11:21.768Z,1.80
2022-11-10T12:14:02.182Z,2.00
2022-11-10T12:16:32.236Z,1.98
2022-11-10T12:19:10.526Z,2.67
2022-11-10T12:21:45.382Z,1.95
2022-11-10T12:24:34.044Z,2.47
2022-11-10T12:27:11.932Z,1.60
2022-11-10T12:29:46.043Z,1.30
2022-11-10T12:32:22.062Z,1.90
2022-11-10T12:34:56.048Z,1.60
2022-11-10T12:37:32.077Z,1.88
2022-11-10T12:40:07.145Z,1.85
2022-11-10T12:42:38.991Z,1.92
2022-11-10T12:45:09.281Z,1.90
2022-11-10T12:47:44.181Z,1.52
2022-11-10T12:50:26.474Z,1.45
2022-11-10T12:52:58.952Z,1.45
2022-11-10T12:55:37.290Z,1.02
2022-11-10T12:58:07.363Z,1.27
2022-11-10T13:00:41.320Z,1.35
2022-11-10T13:03:16.695Z,1.77
2022-11-10T13:05:46.539Z,0.85
2022-11-10T13:08:28.532Z,1.60
2022-11-10T13:11:03.654Z,1.05
2022-11-10T13:13:40.963Z,1.10
2022-11-10T13:16:11.546Z,0.88
2022-11-10T13:19:00.914Z,1.27
2022-11-10T13:22:07.369Z,1.55
2022-11-10T13:24:37.201Z,1.35
2022-11-10T13:27:11.677Z,1.10
2022-11-10T13:29:56.271Z,1.33
2022-11-10T13:32:28.170Z,1.42
2022-11-10T13:34:56.907Z,1.98
2022-11-10T13:37:51.550Z,1.23
2022-11-10T13:40:29.654Z,1.75
2022-11-10T13:43:26.045Z,1.70
2022-11-10T13:46:05.279Z,1.63
2022-11-10T13:48:51.396Z,1.75
2022-11-10T13:51:33.700Z,2.00
2022-11-10T13:54:20.891Z,1.88
2022-11-10T13:57:06.008Z,1.85
2022-11-10T13:59:47.322Z,2.97
2022-11-10T14:02:47.519Z,2.88
2022-11-10T14:06:03.616Z,2.38
2022-11-10T14:08:49.794Z,1.90
2022-11-10T14:11:23.821Z,2.80
2022-11-10T14:13:57.655Z,2.10
2022-11-10T14:16:31.614Z,2.60
2022-11-10T14:19:04.549Z,2.00
2022-11-10T14:21:42.603Z,2.58
2022-11-10T14:24:20.346Z,2.45
2022-11-10T14:26:53.317Z,2.65
2022-11-10T14:29:28.004Z,2.80
2022-11-10T14:31:58.713Z,1.75
2022-11-10T14:34:28.195Z,2.55
2022-11-10T14:36:58.385Z,1.77
2022-11-10T14:39:32.996Z,1.92
2022-11-10T14:42:04.242Z,1.92
2022-11-10T14:44:34.211Z,2.72
2022-11-10T14:47:24.134Z,1.70
2022-11-10T14:50:09.251Z,2.55
2022-11-10T14:52:41.485Z,1.80
2022-11-10T14:55:16.257Z,1.58
2022-11-10T14:57:49.536Z,2.30
2022-11-10T15:00:25.250Z,2.05
2022-11-10T15:02:56.888Z,2.53
2022-11-10T15:05:26.131Z,2.15
2022-11-10T15:07:56.129Z,1.70
2022-11-10T15:10:26.766Z,1.92
2022-11-10T15:13:07.182Z,1.77
2022-11-10T15:15:35.501Z,1.85
2022-11-10T15:18:05.375Z,2.05
2022-11-10T15:20:36.855Z,2.28
2022-11-10T15:23:07.887Z,2.28
2022-11-10T15:25:38.626Z,2.15
2022-11-10T15:28:18.649Z,2.33
2022-11-10T15:30:52.169Z,2.50
2022-11-10T15:33:27.464Z,2.53
2022-11-10T15:35:57.310Z,1.92
2022-11-10T15:38:31.430Z,2.70
2022-11-10T15:41:20.694Z,2.05
2022-11-10T15:43:51.076Z,2.25
2022-11-10T15:46:22.315Z,2.40
2022-11-10T15:48:53.463Z,1.92
2022-11-10T15:51:26.148Z,2.08
2022-11-10T15:53:54.949Z,2.33
2022-11-10T15:56:24.909Z,1.77
2022-11-10T15:59:00.610Z,2.88
2022-11-10T16:01:30.111Z,2.05
2022-11-10T16:03:59.624Z,1.75
2022-11-10T16:06:30.104Z,2.70
2022-11-10T16:08:58.555Z,2.33
2022-11-10T16:11:26.868Z,1.75
2022-11-10T16:13:56.463Z,2.17
2022-11-10T16:16:24.776Z,2.20
2022-11-10T16:18:53.009Z,2.30
2022-11-10T16:21:24.405Z,2.33
2022-11-10T16:23:53.361Z,2.45
2022-11-10T16:26:24.980Z,2.90
2022-11-10T16:28:53.291Z,2.72
2022-11-10T16:31:23.168Z,2.22
2022-11-10T16:33:51.501Z,2.47
2022-11-10T16:36:26.254Z,3.40
2022-11-10T16:38:55.393Z,2.08
2022-11-10T16:41:24.110Z,2.58
2022-11-10T16:43:52.381Z,2.38
2022-11-10T16:46:24.115Z,2.30
2022-11-10T16:48:54.864Z,3.13
2022-11-10T16:51:30.620Z,2.35
2022-11-10T16:53:59.725Z,2.28
2022-11-10T16:56:28.155Z,2.33
2022-11-10T16:58:56.457Z,2.78
2022-11-10T17:01:27.978Z,2.75
2022-11-10T17:03:59.594Z,2.22
2022-11-10T17:06:30.776Z,3.00
2022-11-10T17:09:04.400Z,2.05
2022-11-10T17:11:32.590Z,2.30
2022-11-10T17:14:00.660Z,2.47
2022-11-10T17:16:32.012Z,3.45
2022-11-10T17:19:02.302Z,2.67
2022-11-10T17:21:33.423Z,2.00
2022-11-10T17:24:02.086Z,2.38
2022-11-10T17:26:31.223Z,2.20
2022-11-10T17:28:59.807Z,2.95
2022-11-10T17:31:27.990Z,1.95
2022-11-10T17:33:56.095Z,2.42
2022-11-10T17:36:25.326Z,1.48
2022-11-10T17:38:54.880Z,1.67
2022-11-10T17:41:23.157Z,2.13
2022-11-10T17:43:51.313Z,1.05
2022-11-10T17:46:19.420Z,2.65
2022-11-10T17:48:48.159Z,1.70
2022-11-10T17:51:20.506Z,1.75
2022-11-10T17:53:50.705Z,1.58
2022-11-10T17:56:20.792Z,2.30
2022-11-10T17:58:48.954Z,1.75
2022-11-10T18:01:19.506Z,1.42
2022-11-10T18:03:47.998Z,1.50
2022-11-10T18:06:17.150Z,1.40
2022-11-10T18:08:45.603Z,1.55
2022-11-10T18:11:16.148Z,1.33
2022-11-10T18:13:46.007Z,2.13
2022-11-10T18:16:15.174Z,1.50
2022-11-10T18:18:43.856Z,1.55
2022-11-10T18:21:12.567Z,1.50
2022-11-10T18:23:40.694Z,1.80
2022-11-10T18:26:11.765Z,1.98
2022-11-10T18:28:42.225Z,1.73
2022-11-10T18:31:13.965Z,2.15
2022-11-10T18:33:42.171Z,1.67
2022-11-10T18:36:11.339Z,1.60
2022-11-10T18:38:39.520Z,1.90
2022-11-10T18:41:22.503Z,1.55
2022-11-10T18:43:50.701Z,1.42
2022-11-10T18:46:20.252Z,1.85
2022-11-10T18:48:48.901Z,1.63
2022-11-10T18:51:17.364Z,1.58
2022-11-10T18:53:45.504Z,1.38
2022-11-10T18:56:14.521Z,1.65
2022-11-10T18:58:43.176Z,1.65
2022-11-10T19:01:12.282Z,1.88
2022-11-10T19:03:42.892Z,1.45
2022-11-10T19:06:12.000Z,1.80
2022-11-10T19:08:40.242Z,1.98
2022-11-10T19:11:09.816Z,1.50
2022-11-10T19:13:38.687Z,1.42
2022-11-10T19:16:07.960Z,2.33
2022-11-10T19:18:36.063Z,1.65
2022-11-10T19:21:08.009Z,1.88
2022-11-10T19:23:36.115Z,2.15
2022-11-10T19:26:05.798Z,1.40
2022-11-10T19:28:34.240Z,1.33
2022-11-10T19:31:03.016Z,1.25
2022-11-10T19:33:31.821Z,1.63
2022-11-10T19:36:04.511Z,1.52
2022-11-10T19:38:34.552Z,1.75
2022-11-10T19:41:05.561Z,1.55
2022-11-10T19:43:33.646Z,1.67
2022-11-10T19:46:06.933Z,1.92
2022-11-10T19:48:35.581Z,1.30
2022-11-10T19:51:05.475Z,1.73
2022-11-10T19:53:35.049Z,2.00
2022-11-10T19:56:05.011Z,2.28
2022-11-10T19:58:33.360Z,1.95
2022-11-10T20:01:02.176Z,2.97
2022-11-10T20:03:30.874Z,3.40
2022-11-10T20:06:00.306Z,3.22
2022-11-10T20:08:28.567Z,5.90
2022-11-10T20:11:01.106Z,3.33
2022-11-10T20:13:29.236Z,2.83
2022-11-10T20:15:57.469Z,2.70
2022-11-10T20:18:25.790Z,3.30
2022-11-10T20:20:53.829Z,2.30
2022-11-10T20:23:22.247Z,2.65
2022-11-10T20:25:50.702Z,3.17
2022-11-10T20:28:20.199Z,2.50
2022-11-10T20:30:48.410Z,2.42
2022-11-10T20:33:16.490Z,2.88
2022-11-10T20:35:45.070Z,2.22
2022-11-10T20:38:13.242Z,2.55
2022-11-10T20:40:45.293Z,2.70
2022-11-10T20:43:15.025Z,2.80
2022-11-10T20:45:44.551Z,2.83
2022-11-10T20:48:12.953Z,2.00
2022-11-10T20:50:42.264Z,3.10
2022-11-10T20:53:10.496Z,2.38
2022-11-10T20:55:54.925Z,1.75
2022-11-10T20:58:23.109Z,2.72
2022-11-10T21:00:53.215Z,2.20
2022-11-10T21:03:21.960Z,1.92
2022-11-10T21:05:54.635Z,2.13
2022-11-10T21:08:23.285Z,2.40
2022-11-10T21:10:52.964Z,1.92
2022-11-10T21:13:21.900Z,1.73
2022-11-10T21:15:53.338Z,2.20
2022-11-10T21:18:22.067Z,1.90
2022-11-10T21:20:51.577Z,2.30
2022-11-10T21:23:19.993Z,2.10
2022-11-10T21:25:53.942Z,2.00
2022-11-10T21:28:22.257Z,1.65
2022-11-10T21:30:50.676Z,1.45
2022-11-10T21:33:20.648Z,1.30
2022-11-10T21:35:49.771Z,1.23
2022-11-10T21:38:17.898Z,2.35
2022-11-10T21:40:46.166Z,1.23
2022-11-10T21:43:14.440Z,1.30
2022-11-10T21:45:42.693Z,1.23
2022-11-10T21:48:10.857Z,1.60
2022-11-10T21:50:40.387Z,1.35
2022-11-10T21:53:08.842Z,2.28
2022-11-10T21:55:37.002Z,1.60
2022-11-10T21:58:05.184Z,1.30
2022-11-10T22:00:33.369Z,1.88
2022-11-10T22:03:02.014Z,1.27
2022-11-10T22:05:30.250Z,1.80
2022-11-10T22:07:59.819Z,1.30
2022-11-10T22:10:45.402Z,2.08
2022-11-10T22:13:34.145Z,1.63
2022-11-10T22:16:19.997Z,2.58
2022-11-10T22:18:48.724Z,1.63
2022-11-10T22:21:16.801Z,1.50
2022-11-10T22:24:03.897Z,1.65
2022-11-10T22:26:32.162Z,1.63
2022-11-10T22:29:00.399Z,1.60
2022-11-10T22:31:28.461Z,1.85
2022-11-10T22:33:56.634Z,1.55
2022-11-10T22:36:24.888Z,2.00
2022-11-10T22:38:56.138Z,1.92
2022-11-10T22:41:44.827Z,1.35
2022-11-10T22:44:14.682Z,1.50
2022-11-10T22:46:45.921Z,1.27
2022-11-10T22:49:15.378Z,1.05
2022-11-10T22:51:45.547Z,1.52
2022-11-10T22:54:16.755Z,1.38
2022-11-10T22:56:45.182Z,1.52
2022-11-10T22:59:13.598Z,1.38
2022-11-10T23:01:43.201Z,1.33
2022-11-10T23:04:12.517Z,1.10
2022-11-10T23:06:40.788Z,1.13
2022-11-10T23:09:09.220Z,1.00
2022-11-10T23:11:38.895Z,1.38
2022-11-10T23:14:07.034Z,1.20
2022-11-10T23:16:36.573Z,1.10
2022-11-10T23:19:04.854Z,1.17
2022-11-10T23:21:33.032Z,1.30
2022-11-10T23:24:01.197Z,1.60
2022-11-10T23:26:30.738Z,0.93
2022-11-10T23:29:00.356Z,1.10
2022-11-10T23:31:29.167Z,1.20
2022-11-10T23:33:58.245Z,1.15
2022-11-10T23:36:27.912Z,0.82
2022-11-10T23:38:56.707Z,0.80
2022-11-10T23:41:26.248Z,0.80
2022-11-10T23:43:54.776Z,1.00
2022-11-10T23:46:24.384Z,1.15
2022-11-10T23:48:52.637Z,0.85
2022-11-10T23:51:20.860Z,0.73
2022-11-10T23:53:49.110Z,0.85
2022-11-10T23:56:17.297Z,0.60
2022-11-10T23:58:45.464Z,0.50
